Time;durP1;ratioP1;P1;durP2;ratioP2;P2;SDS_P1;SDS_P2;PMS_P1;PMS_P2;Temp;Humidity;BMP_temperature;BMP_pressure;BME280_temperature;BME280_humidity;BME280_pressure;Samples;Min_cycle;Max_cycle;Signal;HPM_P1;HPM_P2
2022/01/19 00:00:44;;;;;;;10.13;4.07;;;4.70;99.90;;;;;;5007304;28;20171;-83
2022/01/19 00:03:10;;;;;;;18.90;6.57;;;4.70;99.90;;;;;;5008275;28;20045;-83
2022/01/19 00:05:36;;;;;;;10.02;6.13;;;4.70;99.90;;;;;;5017887;28;20057;-83
2022/01/19 00:08:02;;;;;;;8.43;6.00;;;4.70;99.90;;;;;;5023707;28;20045;-83
2022/01/19 00:10:28;;;;;;;10.32;6.03;;;4.70;99.90;;;;;;5021615;28;20053;-84
2022/01/19 00:12:56;;;;;;;18.52;9.65;;;4.70;99.90;;;;;;5007605;28;20483;-83
2022/01/19 00:15:22;;;;;;;19.13;5.82;;;4.70;99.90;;;;;;5009960;28;20048;-84
2022/01/19 00:17:49;;;;;;;11.60;5.03;;;4.60;99.90;;;;;;4990861;28;20049;-83
2022/01/19 00:20:14;;;;;;;27.45;10.85;;;4.60;99.90;;;;;;4991759;28;20553;-83
2022/01/19 00:22:40;;;;;;;10.90;6.18;;;4.60;99.90;;;;;;4993294;28;20041;-83
2022/01/19 00:25:07;;;;;;;3.13;2.67;;;4.60;99.90;;;;;;4995508;28;20652;-83
2022/01/19 00:27:34;;;;;;;11.05;5.50;;;4.60;99.90;;;;;;5018542;28;20548;-83
2022/01/19 00:29:59;;;;;;;23.35;10.70;;;4.60;99.90;;;;;;5012362;28;20042;-83
2022/01/19 00:32:26;;;;;;;33.08;12.07;;;4.60;99.90;;;;;;5011442;28;20160;-84
2022/01/19 00:34:52;;;;;;;24.17;10.00;;;4.60;99.90;;;;;;4996953;28;20045;-84
2022/01/19 00:37:17;;;;;;;28.27;13.15;;;4.60;99.90;;;;;;5016930;28;20399;-83
2022/01/19 00:39:43;;;;;;;2.58;2.38;;;4.60;99.90;;;;;;4994651;28;20046;-83
2022/01/19 00:42:09;;;;;;;33.22;10.45;;;4.60;99.90;;;;;;5001045;28;20506;-83
2022/01/19 00:44:34;;;;;;;15.45;6.20;;;4.50;99.90;;;;;;5012822;28;20499;-84
2022/01/19 00:47:00;;;;;;;15.57;7.38;;;4.60;99.90;;;;;;4995500;28;20041;-84
2022/01/19 00:49:26;;;;;;;21.13;9.73;;;4.60;99.90;;;;;;5014280;28;20046;-83
2022/01/19 00:51:51;;;;;;;26.23;9.70;;;4.60;99.90;;;;;;5019492;28;20054;-84
2022/01/19 00:54:17;;;;;;;3.03;2.80;;;4.50;99.90;;;;;;5011520;28;20050;-83
2022/01/19 00:56:43;;;;;;;14.40;6.40;;;4.50;99.90;;;;;;5018700;28;20030;-83
2022/01/19 00:59:08;;;;;;;21.80;8.07;;;4.50;99.90;;;;;;5015770;28;20049;-84
2022/01/19 01:01:34;;;;;;;12.43;6.88;;;4.50;99.90;;;;;;5000403;28;20034;-83
2022/01/19 01:03:59;;;;;;;13.65;6.15;;;4.50;99.90;;;;;;4994429;28;20041;-83
2022/01/19 01:06:25;;;;;;;10.93;6.10;;;4.50;99.90;;;;;;4999268;28;20049;-83
2022/01/19 01:08:50;;;;;;;20.70;8.90;;;4.50;99.90;;;;;;5024805;28;20049;-83
2022/01/19 01:11:17;;;;;;;11.27;7.28;;;4.50;99.90;;;;;;5018793;28;20060;-83
2022/01/19 01:19:01;;;;;;;13.77;6.72;;;4.40;99.90;;;;;;5018683;28;20555;-83
2022/01/19 01:21:26;;;;;;;27.65;7.65;;;4.40;99.90;;;;;;5000175;28;20129;-82
2022/01/19 01:23:52;;;;;;;31.02;12.52;;;4.40;99.90;;;;;;5026997;28;20124;-83
2022/01/19 01:26:18;;;;;;;26.95;8.80;;;4.40;99.90;;;;;;5000812;28;20084;-84
2022/01/19 01:28:43;;;;;;;13.43;7.60;;;4.40;99.90;;;;;;5007951;28;20053;-83
2022/01/19 01:31:09;;;;;;;14.98;7.05;;;4.40;99.90;;;;;;5009543;28;20402;-83
2022/01/19 01:33:39;;;;;;;33.35;9.52;;;4.40;99.90;;;;;;5000465;28;20053;-83
2022/01/19 01:36:05;;;;;;;6.03;3.40;;;4.40;99.90;;;;;;5000862;28;20046;-83
2022/01/19 01:38:31;;;;;;;16.60;8.02;;;4.30;99.90;;;;;;5014218;28;20041;-83
2022/01/19 01:40:56;;;;;;;17.60;8.30;;;4.30;99.90;;;;;;5001881;28;20044;-82
2022/01/19 01:43:22;;;;;;;6.43;3.17;;;4.30;99.90;;;;;;5003613;28;20125;-83
2022/01/19 01:45:53;;;;;;;50.72;18.60;;;4.30;99.90;;;;;;4993345;28;20895;-82
2022/01/19 01:48:21;;;;;;;7.07;3.85;;;4.40;99.90;;;;;;5018648;28;20053;-83
2022/01/19 01:53:33;;;;;;;17.67;7.03;;;4.30;99.90;;;;;;5009680;28;20056;-83
2022/01/19 01:56:11;;;;;;;16.48;5.03;;;4.30;99.90;;;;;;4999879;28;20054;-83
2022/01/19 01:58:40;;;;;;;13.68;4.78;;;4.30;99.90;;;;;;5022357;28;20065;-83
2022/01/19 02:01:07;;;;;;;35.33;5.93;;;4.30;99.90;;;;;;5019958;28;20073;-83
2022/01/19 02:03:38;;;;;;;10.95;6.85;;;4.30;99.90;;;;;;5001807;28;20041;-83
2022/01/19 02:08:50;;;;;;;23.02;10.15;;;4.40;99.90;;;;;;5012149;28;20060;-83
2022/01/19 02:22:13;;;;;;;10.23;3.90;;;4.50;99.90;;;;;;5017583;28;20445;-83
2022/01/19 02:24:44;;;;;;;37.70;8.93;;;4.40;99.90;;;;;;5007536;28;20045;-83
2022/01/19 02:41:31;;;;;;;19.90;9.68;;;4.50;99.90;;;;;;5007985;28;20046;-83
2022/01/19 02:43:57;;;;;;;25.98;10.07;;;4.50;99.90;;;;;;5014448;28;20763;-83
2022/01/19 02:49:19;;;;;;;7.38;2.45;;;4.60;99.90;;;;;;5007331;28;20061;-84
2022/01/19 02:51:48;;;;;;;28.30;11.65;;;4.60;99.90;;;;;;4994975;28;20093;-83
2022/01/19 02:54:17;;;;;;;36.78;13.32;;;4.60;99.90;;;;;;4996771;28;20050;-83
2022/01/19 02:56:47;;;;;;;49.20;13.38;;;4.60;99.90;;;;;;5000456;28;20116;-83
2022/01/19 02:59:21;;;;;;;43.67;16.27;;;4.60;99.90;;;;;;5008677;28;20065;-83
2022/01/19 03:09:46;;;;;;;5.05;2.47;;;4.60;99.90;;;;;;5015449;28;20041;-83
2022/01/19 03:12:12;;;;;;;18.48;7.25;;;4.50;99.90;;;;;;5018202;28;20045;-83
2022/01/19 03:14:38;;;;;;;23.25;8.85;;;4.50;99.90;;;;;;5024632;28;20053;-84
2022/01/19 03:17:05;;;;;;;23.08;6.63;;;4.50;99.90;;;;;;5000886;28;20045;-83
2022/01/19 03:19:33;;;;;;;19.10;9.25;;;4.50;99.90;;;;;;4997047;28;20037;-83
2022/01/19 03:21:59;;;;;;;44.20;12.95;;;4.50;99.90;;;;;;5009860;28;20045;-83
2022/01/19 03:24:25;;;;;;;29.70;10.15;;;4.50;99.90;;;;;;5001920;28;20044;-83
2022/01/19 03:26:51;;;;;;;20.42;6.68;;;4.50;99.90;;;;;;5003315;28;20049;-83
2022/01/19 03:29:17;;;;;;;23.95;9.30;;;4.50;99.90;;;;;;4993172;28;20041;-83
2022/01/19 03:31:43;;;;;;;14.60;5.55;;;4.50;99.90;;;;;;4997012;28;20088;-83
2022/01/19 03:34:10;;;;;;;6.97;2.97;;;4.50;99.90;;;;;;4990680;28;20038;-84
2022/01/19 03:36:36;;;;;;;9.48;5.50;;;4.50;99.90;;;;;;5009767;28;20466;-83
2022/01/19 03:39:03;;;;;;;29.45;10.32;;;4.40;99.90;;;;;;5012128;28;20141;-83
2022/01/19 03:41:29;;;;;;;18.75;6.97;;;4.40;99.90;;;;;;5010087;28;20486;-83
2022/01/19 03:43:55;;;;;;;22.98;7.18;;;4.40;99.90;;;;;;5006999;28;20099;-83
2022/01/19 03:46:21;;;;;;;16.30;7.28;;;4.30;99.90;;;;;;5021010;28;20102;-84
2022/01/19 03:48:55;;;;;;;37.22;13.43;;;4.30;99.90;;;;;;5007595;28;20130;-83
2022/01/19 03:51:21;;;;;;;35.47;10.75;;;4.30;99.90;;;;;;5016164;28;20067;-83
2022/01/19 03:53:47;;;;;;;18.98;6.55;;;4.20;99.90;;;;;;5019627;28;20049;-84
2022/01/19 03:56:13;;;;;;;30.67;7.72;;;4.10;99.90;;;;;;5005938;28;20395;-83
2022/01/19 03:58:39;;;;;;;29.25;8.50;;;4.10;99.90;;;;;;5018134;28;20036;-84
2022/01/19 04:01:05;;;;;;;2.30;2.10;;;4.10;99.90;;;;;;5009049;28;20654;-83
2022/01/19 04:04:03;;;;;;;11.50;5.53;;;4.10;99.90;;;;;;5003434;28;20046;-84
2022/01/19 04:06:39;;;;;;;18.55;8.43;;;4.00;99.90;;;;;;5014662;28;20128;-83
2022/01/19 04:09:05;;;;;;;41.38;8.52;;;4.00;99.90;;;;;;5009506;28;20045;-83
2022/01/19 04:11:30;;;;;;;10.18;3.70;;;4.00;99.90;;;;;;5014508;28;20050;-83
2022/01/19 04:16:22;;;;;;;10.13;5.10;;;4.10;99.90;;;;;;5011224;28;20462;-84
2022/01/19 04:18:48;;;;;;;16.00;4.88;;;4.00;99.90;;;;;;5004809;28;20308;-83
2022/01/19 04:21:14;;;;;;;15.90;7.72;;;4.10;99.90;;;;;;5010334;28;20046;-83
2022/01/19 04:23:40;;;;;;;27.35;10.15;;;4.10;99.90;;;;;;5010928;28;20069;-83
2022/01/19 04:26:05;;;;;;;1.73;1.52;;;4.10;99.90;;;;;;5002978;28;20085;-84
2022/01/19 04:28:31;;;;;;;18.23;9.02;;;4.10;99.90;;;;;;4997409;28;20124;-83
2022/01/19 04:30:57;;;;;;;8.57;4.03;;;4.10;99.90;;;;;;5011079;28;20069;-84
2022/01/19 04:33:26;;;;;;;21.52;8.57;;;4.10;99.90;;;;;;5010498;28;20049;-84
2022/01/19 04:35:54;;;;;;;22.13;2.80;;;4.10;99.90;;;;;;5011119;28;20071;-83
2022/01/19 04:44:09;;;;;;;35.35;13.55;;;4.10;99.90;;;;;;5024480;28;20072;-83
2022/01/19 04:54:41;;;;;;;16.13;6.93;;;4.10;99.90;;;;;;5016341;28;20125;-83
2022/01/19 05:05:45;;;;;;;2.60;2.40;;;4.10;99.90;;;;;;4971622;28;20042;-83
2022/01/19 05:08:18;;;;;;;7.93;2.42;;;4.10;99.90;;;;;;5002030;28;20140;-84
2022/01/19 05:13:35;;;;;;;2.47;2.05;;;4.10;99.90;;;;;;5009623;28;20088;-83
2022/01/19 05:16:01;;;;;;;14.73;5.75;;;4.10;99.90;;;;;;5010123;28;20053;-83
2022/01/19 05:18:27;;;;;;;6.10;3.33;;;4.10;99.90;;;;;;5007197;28;20394;-83
2022/01/19 05:20:53;;;;;;;9.50;3.42;;;4.10;99.90;;;;;;5004110;28;20049;-83
2022/01/19 05:23:19;;;;;;;4.07;2.92;;;4.10;99.90;;;;;;4998598;28;20045;-84
2022/01/19 05:25:45;;;;;;;1.25;1.20;;;4.10;99.90;;;;;;5014240;28;20045;-84
2022/01/19 05:28:11;;;;;;;4.85;3.03;;;4.10;99.90;;;;;;5011437;28;20052;-83
2022/01/19 05:30:37;;;;;;;11.45;3.13;;;4.10;99.90;;;;;;5027215;28;20042;-83
2022/01/19 05:33:02;;;;;;;1.27;1.17;;;4.10;99.90;;;;;;5027818;28;20513;-83
2022/01/19 05:35:29;;;;;;;5.40;3.00;;;4.10;99.90;;;;;;5003602;28;20045;-83
2022/01/19 05:37:55;;;;;;;1.30;0.90;;;4.10;99.90;;;;;;5009576;28;20636;-84
2022/01/19 05:40:21;;;;;;;1.77;1.67;;;4.10;99.90;;;;;;5011874;28;20045;-83
2022/01/19 05:42:48;;;;;;;19.88;6.75;;;4.10;99.90;;;;;;5009160;28;20117;-84
2022/01/19 05:45:14;;;;;;;12.95;7.43;;;4.10;99.90;;;;;;5002142;28;20392;-84
2022/01/19 05:47:40;;;;;;;6.22;3.28;;;4.10;99.90;;;;;;4994012;28;20052;-84
2022/01/19 05:50:06;;;;;;;5.43;3.40;;;4.10;99.90;;;;;;5010484;28;20497;-84
2022/01/19 05:52:32;;;;;;;8.93;7.43;;;4.10;99.90;;;;;;4997683;28;20045;-83
2022/01/19 05:54:57;;;;;;;2.10;2.00;;;4.10;99.90;;;;;;5001490;28;20395;-84
2022/01/19 05:57:23;;;;;;;8.60;4.05;;;4.00;99.90;;;;;;4995937;28;20052;-83
2022/01/19 05:59:49;;;;;;;9.27;4.80;;;4.00;99.90;;;;;;5024226;28;20045;-84
2022/01/19 06:02:16;;;;;;;30.98;7.18;;;4.00;99.90;;;;;;5010927;28;20445;-84
2022/01/19 06:04:41;;;;;;;4.75;3.47;;;4.00;99.90;;;;;;4999370;28;20041;-83
2022/01/19 06:07:07;;;;;;;6.00;3.72;;;4.00;99.90;;;;;;5010245;28;20132;-83
2022/01/19 06:09:36;;;;;;;3.10;1.45;;;4.00;99.90;;;;;;5009297;28;20045;-83
2022/01/19 06:12:09;;;;;;;6.43;4.45;;;4.00;99.90;;;;;;4999151;28;20037;-83
2022/01/19 06:14:37;;;;;;;8.07;3.78;;;4.00;99.90;;;;;;5024444;28;20185;-83
2022/01/19 06:17:05;;;;;;;22.55;9.13;;;4.00;99.90;;;;;;5008392;28;20052;-83
2022/01/19 06:19:31;;;;;;;12.57;4.68;;;4.00;99.90;;;;;;4999563;28;20434;-84
2022/01/19 06:21:57;;;;;;;14.85;6.90;;;4.00;99.90;;;;;;5008249;28;20045;-83
2022/01/19 06:24:23;;;;;;;18.83;5.03;;;4.00;99.90;;;;;;5000485;28;20490;-84
2022/01/19 06:26:48;;;;;;;21.00;8.90;;;4.00;99.90;;;;;;4995437;28;20046;-83
2022/01/19 06:29:14;;;;;;;10.95;6.63;;;4.00;99.90;;;;;;4997055;28;20070;-84
2022/01/19 06:31:40;;;;;;;6.90;4.15;;;4.00;99.90;;;;;;5008194;28;20048;-83
2022/01/19 06:34:06;;;;;;;3.60;3.30;;;4.00;99.90;;;;;;5000029;28;20388;-83
2022/01/19 06:36:31;;;;;;;2.60;2.40;;;3.90;99.90;;;;;;5004702;28;20128;-83
2022/01/19 06:38:57;;;;;;;42.95;16.60;;;3.90;99.90;;;;;;5006989;28;20052;-83
2022/01/19 06:41:23;;;;;;;3.72;1.30;;;4.00;99.90;;;;;;4991576;28;20124;-83
2022/01/19 06:43:48;;;;;;;0.43;0.43;;;4.00;99.90;;;;;;5000466;28;20049;-83
2022/01/19 06:46:14;;;;;;;4.22;2.35;;;4.00;99.90;;;;;;5025255;28;20050;-83
2022/01/19 06:48:40;;;;;;;2.33;2.13;;;4.00;99.90;;;;;;5026017;28;20176;-83
2022/01/19 06:51:05;;;;;;;9.82;5.63;;;4.00;99.90;;;;;;4998305;28;20132;-83
2022/01/19 06:53:31;;;;;;;5.93;3.95;;;4.00;99.90;;;;;;5001380;28;20042;-84
2022/01/19 06:55:57;;;;;;;16.92;7.32;;;4.00;99.90;;;;;;5014104;28;20038;-83
2022/01/19 06:58:24;;;;;;;10.32;5.82;;;4.00;99.90;;;;;;5014666;28;20093;-83
2022/01/19 07:00:50;;;;;;;10.13;4.80;;;4.00;99.90;;;;;;5010550;28;20502;-83
2022/01/19 07:03:15;;;;;;;7.32;2.83;;;4.00;99.90;;;;;;5029278;28;20072;-83
2022/01/19 07:05:41;;;;;;;10.65;3.67;;;4.00;99.90;;;;;;5025567;28;20045;-84
2022/01/19 07:08:06;;;;;;;0.85;0.80;;;4.00;99.90;;;;;;5010402;28;20044;-83
2022/01/19 07:10:32;;;;;;;3.05;2.78;;;4.00;99.90;;;;;;5015655;28;20324;-83
2022/01/19 07:13:02;;;;;;;7.88;4.32;;;4.00;99.90;;;;;;5010148;28;20053;-83
2022/01/19 07:15:28;;;;;;;3.55;2.67;;;4.00;99.90;;;;;;5032087;28;20049;-83
2022/01/19 07:17:54;;;;;;;11.10;5.57;;;4.00;99.90;;;;;;5010385;28;20048;-83
2022/01/19 07:20:19;;;;;;;8.52;5.80;;;4.00;99.90;;;;;;5010207;28;20175;-83
2022/01/19 07:22:47;;;;;;;8.90;2.78;;;4.00;99.90;;;;;;5007313;28;20049;-83
2022/01/19 07:25:12;;;;;;;7.75;4.85;;;4.00;99.90;;;;;;4990664;28;20038;-83
2022/01/19 07:27:38;;;;;;;13.55;3.58;;;4.00;99.90;;;;;;5007160;28;20053;-83
2022/01/19 07:30:04;;;;;;;14.70;7.55;;;4.00;99.90;;;;;;4989625;28;20612;-83
2022/01/19 07:32:34;;;;;;;8.98;4.20;;;4.00;99.90;;;;;;5006668;28;20042;-84
2022/01/19 07:35:00;;;;;;;7.05;5.30;;;4.00;99.90;;;;;;5007142;28;20049;-84
2022/01/19 07:37:26;;;;;;;6.57;4.32;;;4.00;99.90;;;;;;5006985;28;20049;-83
2022/01/19 07:39:51;;;;;;;12.43;7.25;;;4.00;99.90;;;;;;5006467;28;20548;-83
2022/01/19 07:42:17;;;;;;;8.57;4.45;;;4.00;99.90;;;;;;5007146;28;20054;-83
2022/01/19 07:44:42;;;;;;;6.28;2.35;;;4.00;99.90;;;;;;5016439;28;20521;-83
2022/01/19 07:47:08;;;;;;;14.93;7.13;;;4.00;99.90;;;;;;5001599;28;20140;-83
2022/01/19 07:49:34;;;;;;;17.38;7.28;;;4.00;99.90;;;;;;5006315;28;20046;-83
2022/01/19 07:51:59;;;;;;;10.55;5.90;;;4.00;99.90;;;;;;5015832;28;20046;-82
2022/01/19 07:54:25;;;;;;;15.13;6.03;;;4.00;99.90;;;;;;5021186;28;20057;-83
2022/01/19 07:56:50;;;;;;;10.93;5.82;;;4.00;99.90;;;;;;4998642;28;20729;-84
2022/01/19 07:59:17;;;;;;;28.30;11.35;;;4.00;99.90;;;;;;5022313;28;20136;-83
2022/01/19 08:01:43;;;;;;;13.93;7.57;;;4.00;99.90;;;;;;4998434;28;20434;-83
2022/01/19 08:04:09;;;;;;;3.78;3.40;;;4.00;99.90;;;;;;5000809;28;20049;-83
2022/01/19 08:06:34;;;;;;;6.47;3.63;;;4.00;99.90;;;;;;4990210;28;20498;-83
2022/01/19 08:09:00;;;;;;;17.83;8.13;;;4.00;99.90;;;;;;5010084;28;20042;-83
2022/01/19 08:11:26;;;;;;;5.97;4.18;;;4.00;99.90;;;;;;4991114;28;20171;-83
2022/01/19 08:13:52;;;;;;;11.48;5.22;;;4.00;99.90;;;;;;5002954;28;20542;-84
2022/01/19 08:16:18;;;;;;;5.80;4.25;;;4.00;99.90;;;;;;5005974;28;20046;-83
2022/01/19 08:18:44;;;;;;;17.30;7.38;;;4.10;99.90;;;;;;4999953;28;20045;-83
2022/01/19 08:21:09;;;;;;;10.90;5.75;;;4.10;99.90;;;;;;5018576;28;20065;-83
2022/01/19 08:23:35;;;;;;;26.88;10.68;;;4.10;99.90;;;;;;5008399;28;20041;-84
2022/01/19 08:26:01;;;;;;;17.38;8.48;;;4.20;99.90;;;;;;5026440;28;20037;-83
2022/01/19 08:28:28;;;;;;;6.55;4.63;;;4.20;99.90;;;;;;5025975;28;20135;-84
2022/01/19 08:30:53;;;;;;;3.72;3.10;;;4.20;99.90;;;;;;5012251;28;20491;-83
2022/01/19 08:33:19;;;;;;;14.40;9.05;;;4.20;99.90;;;;;;5006671;28;20042;-83
2022/01/19 08:35:45;;;;;;;38.95;13.05;;;4.30;99.90;;;;;;5006411;28;20196;-84
2022/01/19 08:38:11;;;;;;;9.48;6.15;;;4.30;99.90;;;;;;5006255;28;20050;-83
2022/01/19 08:40:37;;;;;;;23.52;9.43;;;4.40;99.90;;;;;;5006605;28;20487;-83
2022/01/19 08:43:03;;;;;;;13.43;7.30;;;4.40;99.90;;;;;;5025990;28;20052;-83
2022/01/19 08:45:29;;;;;;;37.05;15.65;;;4.40;99.90;;;;;;5013275;28;20054;-83
2022/01/19 08:47:55;;;;;;;14.52;6.57;;;4.50;99.90;;;;;;5009374;28;20050;-83
2022/01/19 08:50:20;;;;;;;16.60;8.40;;;4.60;99.90;;;;;;5012650;28;20041;-82
2022/01/19 08:52:47;;;;;;;24.13;11.50;;;4.60;99.90;;;;;;4994980;28;20058;-83
2022/01/19 08:55:12;;;;;;;27.25;11.57;;;4.60;99.90;;;;;;5009604;28;20045;-83
2022/01/19 08:57:38;;;;;;;15.88;9.98;;;4.70;99.90;;;;;;5008151;28;20060;-82
2022/01/19 09:00:08;;;;;;;36.45;12.90;;;4.70;99.90;;;;;;5015771;28;20406;-83
2022/01/19 09:02:34;;;;;;;23.98;11.63;;;4.80;99.90;;;;;;5009483;28;20668;-83
2022/01/19 09:05:00;;;;;;;33.85;12.18;;;4.80;99.90;;;;;;5009689;28;20045;-83
2022/01/19 09:07:26;;;;;;;21.65;10.43;;;4.80;99.90;;;;;;5009470;28;20049;-84
2022/01/19 09:09:52;;;;;;;26.67;12.38;;;4.80;99.90;;;;;;5027790;28;20044;-83
2022/01/19 09:12:17;;;;;;;17.40;6.30;;;4.80;99.90;;;;;;4994939;28;20084;-83
2022/01/19 09:14:43;;;;;;;26.17;8.52;;;4.90;99.90;;;;;;5008438;28;20507;-83
2022/01/19 09:17:08;;;;;;;25.50;12.30;;;4.90;99.90;;;;;;4993042;28;20049;-84
2022/01/19 09:19:37;;;;;;;35.58;17.20;;;4.90;99.90;;;;;;5009125;28;20133;-83
2022/01/19 09:22:04;;;;;;;21.35;8.38;;;5.00;99.90;;;;;;4993153;28;20038;-83
2022/01/19 09:24:30;;;;;;;22.05;10.45;;;5.00;99.90;;;;;;4994856;28;20045;-83
2022/01/19 09:26:56;;;;;;;3.53;2.63;;;5.00;99.90;;;;;;5002736;28;20133;-83
2022/01/19 09:29:22;;;;;;;24.17;10.52;;;5.00;99.90;;;;;;5015874;28;20041;-83
2022/01/19 09:31:47;;;;;;;12.75;4.97;;;5.10;99.90;;;;;;4996346;28;20054;-83
2022/01/19 09:34:20;;;;;;;21.42;9.93;;;5.10;99.90;;;;;;5008132;28;20053;-83
2022/01/19 09:36:46;;;;;;;26.38;11.00;;;5.00;99.90;;;;;;5009320;28;20050;-83
2022/01/19 09:39:14;;;;;;;25.88;10.75;;;5.00;99.90;;;;;;4994339;28;20041;-83
2022/01/19 09:41:41;;;;;;;21.13;9.75;;;5.00;99.90;;;;;;5012198;28;20037;-83
2022/01/19 09:44:08;;;;;;;6.55;4.70;;;5.10;99.90;;;;;;5009583;28;20046;-83
2022/01/19 09:46:35;;;;;;;20.60;10.07;;;5.10;99.90;;;;;;5005606;28;20165;-83
2022/01/19 09:49:02;;;;;;;32.05;12.73;;;5.10;99.90;;;;;;5021533;28;20087;-84
2022/01/19 09:51:28;;;;;;;27.13;12.45;;;5.10;99.90;;;;;;5010368;28;20037;-83
2022/01/19 09:53:54;;;;;;;26.35;11.13;;;5.10;99.90;;;;;;5016767;28;20045;-84
2022/01/19 09:56:20;;;;;;;27.80;11.77;;;5.10;99.90;;;;;;5028061;28;20045;-84
2022/01/19 09:58:47;;;;;;;30.30;12.23;;;5.10;99.90;;;;;;5022989;28;20104;-83
2022/01/19 10:01:20;;;;;;;35.13;13.95;;;5.10;99.90;;;;;;5026233;28;20049;-84
2022/01/19 10:03:46;;;;;;;17.98;8.70;;;5.10;99.90;;;;;;5009649;28;20037;-83
2022/01/19 10:06:15;;;;;;;21.13;9.98;;;5.10;99.90;;;;;;5025861;28;20461;-83
2022/01/19 10:08:45;;;;;;;23.60;9.25;;;5.10;99.90;;;;;;5017319;28;20034;-84
2022/01/19 10:11:21;;;;;;;12.60;5.03;;;5.10;99.90;;;;;;5011129;28;20056;-83
2022/01/19 10:16:59;;;;;;;26.38;13.25;;;5.10;99.90;;;;;;5017711;28;20533;-84
2022/01/19 10:19:25;;;;;;;;;;;5.10;99.90;;;;;;5006358;28;20077;-84
2022/01/19 10:21:59;;;;;;;19.42;8.98;;;5.10;99.90;;;;;;5003882;28;20170;-83
2022/01/19 10:24:39;;;;;;;20.23;10.65;;;5.10;99.90;;;;;;5020925;28;20132;-84
2022/01/19 10:27:25;;;;;;;9.45;5.82;;;5.10;99.90;;;;;;5010689;28;20115;-83
2022/01/19 10:29:55;;;;;;;19.20;10.52;;;5.10;99.90;;;;;;5023405;28;20049;-82
2022/01/19 10:32:23;;;;;;;30.70;13.20;;;5.00;99.90;;;;;;5027831;28;20053;-83
2022/01/19 10:34:50;;;;;;;34.20;15.85;;;5.00;99.90;;;;;;5011351;28;20073;-84
2022/01/19 10:37:22;;;;;;;34.13;14.65;;;5.00;99.90;;;;;;5018674;28;20042;-84
2022/01/19 10:39:50;;;;;;;30.85;13.73;;;5.10;99.90;;;;;;5007828;28;20124;-83
2022/01/19 10:42:25;;;;;;;19.67;8.13;;;5.10;99.90;;;;;;5009644;28;20041;-84
2022/01/19 10:44:55;;;;;;;19.73;10.80;;;5.10;99.90;;;;;;5010420;28;20045;-83
2022/01/19 10:47:53;;;;;;;11.40;5.90;;;5.10;99.90;;;;;;5004723;28;20615;-83
2022/01/19 10:50:28;;;;;;;33.42;15.38;;;5.10;99.90;;;;;;5025602;28;20094;-84
2022/01/19 10:52:56;;;;;;;30.35;12.95;;;5.20;99.90;;;;;;5012759;28;20053;-83
2022/01/19 10:55:31;;;;;;;17.42;9.38;;;5.20;99.90;;;;;;5016760;28;20285;-84
2022/01/19 10:57:58;;;;;;;28.85;10.15;;;5.30;99.90;;;;;;5006048;28;20107;-82
2022/01/19 11:00:36;;;;;;;35.85;13.48;;;5.30;99.90;;;;;;5006968;28;20402;-83
2022/01/19 11:03:26;;;;;;;40.80;14.57;;;5.30;99.90;;;;;;5002479;28;20749;-83
2022/01/19 11:05:53;;;;;;;46.28;17.02;;;5.40;99.90;;;;;;4997397;28;20049;-85
2022/01/19 11:08:22;;;;;;;12.52;6.28;;;5.40;99.90;;;;;;4993025;28;20056;-85
2022/01/19 11:10:51;;;;;;;30.17;13.23;;;5.50;99.90;;;;;;5003965;28;20081;-84
2022/01/19 11:13:28;;;;;;;25.17;11.15;;;5.40;99.90;;;;;;5006795;28;20049;-84
2022/01/19 11:15:58;;;;;;;33.80;17.27;;;5.40;99.90;;;;;;5012118;28;20053;-85
2022/01/19 11:18:29;;;;;;;26.63;12.35;;;5.40;99.90;;;;;;4997484;28;20041;-85
2022/01/19 11:21:01;;;;;;;27.20;11.65;;;5.40;99.90;;;;;;5017399;28;20050;-85
2022/01/19 11:23:40;;;;;;;16.63;8.93;;;5.40;99.90;;;;;;5007891;28;20132;-85
2022/01/19 11:26:14;;;;;;;18.95;9.80;;;5.50;99.90;;;;;;5001361;28;20068;-85
2022/01/19 11:28:49;;;;;;;17.48;10.23;;;5.50;99.90;;;;;;5019331;28;20049;-85
2022/01/19 11:31:22;;;;;;;15.75;6.57;;;5.60;99.90;;;;;;5023987;28;20166;-85
2022/01/19 11:33:56;;;;;;;5.45;4.55;;;5.70;99.90;;;;;;5026619;28;20084;-85
2022/01/19 11:36:43;;;;;;;21.05;10.10;;;5.80;99.90;;;;;;5009305;28;20158;-85
2022/01/19 11:39:21;;;;;;;20.50;9.75;;;5.90;99.90;;;;;;4992781;28;20057;-85
2022/01/19 11:41:54;;;;;;;14.70;8.98;;;6.00;99.90;;;;;;5010225;28;20049;-84
2022/01/19 11:44:32;;;;;;;25.70;11.45;;;6.00;99.90;;;;;;5025377;28;20049;-85
2022/01/19 11:47:21;;;;;;;32.08;16.42;;;6.00;99.90;;;;;;5008868;28;20061;-85
2022/01/19 11:49:58;;;;;;;21.83;11.50;;;6.10;99.90;;;;;;5013590;28;20052;-85
2022/01/19 11:52:43;;;;;;;32.47;15.25;;;6.20;99.90;;;;;;4990999;28;20127;-85
2022/01/19 11:55:19;;;;;;;39.83;18.90;;;6.20;99.90;;;;;;5000388;28;20482;-85
2022/01/19 11:57:48;;;;;;;23.65;10.27;;;6.20;99.90;;;;;;5014879;28;20070;-85
2022/01/19 12:00:21;;;;;;;35.22;16.90;;;6.20;99.90;;;;;;5004124;28;20042;-85
2022/01/19 12:02:58;;;;;;;28.33;12.70;;;6.20;99.90;;;;;;5017151;28;20107;-85
2022/01/19 12:05:28;;;;;;;22.67;10.93;;;6.20;99.90;;;;;;5016174;28;20131;-85
2022/01/19 12:08:17;;;;;;;45.03;15.65;;;6.20;99.90;;;;;;4999504;28;20054;-84
2022/01/19 12:10:46;;;;;;;37.72;15.23;;;6.20;99.90;;;;;;4997774;28;20136;-85
2022/01/19 12:16:17;;;;;;;28.13;13.43;;;6.10;99.90;;;;;;5022675;28;20084;-84
2022/01/19 12:18:51;;;;;;;43.75;20.67;;;6.00;99.90;;;;;;5009063;28;20072;-85
2022/01/19 12:21:38;;;;;;;22.38;10.20;;;6.00;99.90;;;;;;5002395;28;20049;-85
2022/01/19 12:24:26;;;;;;;17.95;9.05;;;6.00;99.90;;;;;;5006537;28;20045;-85
2022/01/19 12:27:03;;;;;;;50.13;24.48;;;6.00;99.90;;;;;;5012312;28;20045;-85
2022/01/19 12:29:38;;;;;;;18.60;7.47;;;5.90;99.90;;;;;;5004892;28;20052;-84
2022/01/19 12:32:18;;;;;;;29.05;12.65;;;5.90;99.90;;;;;;5026165;28;20053;-84
2022/01/19 12:34:49;;;;;;;22.02;9.88;;;5.90;99.90;;;;;;5009899;28;20050;-85
2022/01/19 12:37:46;;;;;;;41.25;15.23;;;5.90;99.90;;;;;;5009882;28;20041;-84
2022/01/19 12:40:18;;;;;;;26.95;14.07;;;5.90;99.90;;;;;;4995391;28;20077;-85
2022/01/19 12:42:54;;;;;;;11.07;5.57;;;5.80;99.90;;;;;;5010493;28;20049;-84
2022/01/19 12:45:54;;;;;;;20.08;9.50;;;5.80;99.90;;;;;;5009550;28;20410;-85
2022/01/19 12:48:38;;;;;;;27.17;12.68;;;5.80;99.90;;;;;;5009540;28;20399;-85
2022/01/19 12:51:04;;;;;;;14.38;8.63;;;5.80;99.90;;;;;;5009854;28;20631;-85
2022/01/19 12:53:30;;;;;;;44.03;16.50;;;5.90;99.90;;;;;;5008562;28;20038;-84
2022/01/19 12:56:09;;;;;;;23.42;10.60;;;6.00;99.90;;;;;;5024240;28;20612;-85
2022/01/19 12:58:37;;;;;;;32.03;15.13;;;6.10;99.90;;;;;;5029380;28;20060;-85
2022/01/19 13:01:10;;;;;;;17.52;9.95;;;6.10;99.90;;;;;;5016781;28;20049;-85
2022/01/19 13:03:42;;;;;;;32.22;16.02;;;6.20;99.90;;;;;;4996144;28;20045;-85
2022/01/19 13:06:10;;;;;;;27.75;13.02;;;6.20;99.90;;;;;;5003309;28;20042;-85
2022/01/19 13:08:44;;;;;;;32.10;15.32;;;6.20;99.90;;;;;;5001432;28;20095;-84
2022/01/19 13:11:46;;;;;;;32.00;12.07;;;6.20;99.90;;;;;;5028849;28;20067;-85
2022/01/19 13:14:13;;;;;;;26.25;12.30;;;6.20;99.90;;;;;;5009721;28;20544;-84
2022/01/19 13:16:48;;;;;;;13.27;6.15;;;6.20;99.90;;;;;;4992840;28;20057;-85
2022/01/19 13:19:23;;;;;;;32.95;15.25;;;6.10;99.90;;;;;;5009199;28;20061;-85
2022/01/19 13:21:59;;;;;;;21.40;8.65;;;6.10;99.90;;;;;;5009050;28;20111;-85
2022/01/19 13:24:27;;;;;;;17.75;7.70;;;6.10;99.90;;;;;;5003978;28;20046;-83
2022/01/19 13:26:57;;;;;;;18.92;9.07;;;6.10;99.90;;;;;;5028822;28;20409;-83
2022/01/19 13:29:38;;;;;;;13.23;7.75;;;6.10;99.90;;;;;;5008386;28;20446;-83
2022/01/19 13:32:12;;;;;;;32.90;12.85;;;6.10;99.90;;;;;;5009070;28;20093;-83
2022/01/19 13:35:11;;;;;;;33.58;15.80;;;6.10;99.90;;;;;;5008571;28;20045;-82
2022/01/19 13:37:55;;;;;;;38.13;17.02;;;6.10;99.90;;;;;;4993166;28;20057;-83
2022/01/19 13:40:24;;;;;;;33.17;14.00;;;6.10;99.90;;;;;;5006035;28;20065;-85
2022/01/19 13:43:00;;;;;;;9.02;5.35;;;6.10;99.90;;;;;;4992577;28;20046;-86
2022/01/19 13:45:48;;;;;;;20.23;10.05;;;6.10;99.90;;;;;;5001845;28;20046;-86
2022/01/19 13:50:53;;;;;;;19.45;9.55;;;6.10;99.90;;;;;;5011069;28;20185;-86
2022/01/19 13:53:37;;;;;;;27.05;11.20;;;6.10;99.90;;;;;;5015252;28;20048;-85
2022/01/19 13:56:06;;;;;;;15.25;6.00;;;6.10;99.90;;;;;;5008164;28;20056;-85
2022/01/19 13:58:40;;;;;;;12.35;6.38;;;6.10;99.90;;;;;;5008194;28;20054;-86
2022/01/19 14:01:10;;;;;;;29.63;14.90;;;6.00;99.90;;;;;;4992290;28;20463;-86
2022/01/19 14:03:58;;;;;;;12.25;6.32;;;6.00;99.90;;;;;;5001171;28;20044;-86
2022/01/19 14:06:42;;;;;;;9.25;6.13;;;6.00;99.90;;;;;;5008436;28;20447;-85
2022/01/19 14:09:09;;;;;;;20.58;8.18;;;6.00;99.90;;;;;;5008525;28;20458;-86
2022/01/19 14:11:36;;;;;;;17.63;8.63;;;6.00;99.90;;;;;;5019779;28;20099;-86
2022/01/19 14:14:06;;;;;;;15.55;5.72;;;5.90;99.90;;;;;;5011414;28;20045;-85
2022/01/19 14:16:37;;;;;;;10.68;5.85;;;5.90;99.90;;;;;;5027836;28;20100;-85
2022/01/19 14:19:24;;;;;;;9.88;5.05;;;5.90;99.90;;;;;;5007941;28;20580;-85